Okinawa, Japan

11:08 PM JST on April 18, 2015 (GMT +0900)
Hiyagon | | Change Station
CLOSE
Current Station
Personal Weather Station
Location: Okinawa, OKINAWA
Elevation: 23 ft
Nearby Weather Stations

Elev 23 ft 26.32 °N, 127.82 °E | Updated 3 seconds ago

Mostly Cloudy
Mostly Cloudy
72.9 °F
Feels Like 70 °F
N
0.0
Wind Variable Wind from NNW
Gusts 0.0 mph

Today
High -- | Low -- °F
--% Chance of Precip.
Yesterday
High -- | Low -- °F
Precip. -- in
6:03 AM 6:53 PM
Waning Crescent, 0% visible
Pressure 29.95 in
Visibility 6.2 miles
Clouds Scattered Clouds 1500 ft
Mostly Cloudy 15000 ft
Heat Index 70 °F
Dew Point 70 °F
Humidity 91%
Rainfall in
Snow Depth Not available.
UV 0 out of 12
Pollen Not available.
Air Quality Not available.
Flu Activity Not available.
METAR ROAH 181400Z 15011KT 9999 SCT015 BKN150 23/19 Q1014

More Conditions Fewer Conditions

Pressure 29.95 in
Visibility 6.2 miles
Clouds Scattered Clouds 1500 ft
Mostly Cloudy 15000 ft
Heat Index 70 °F
Dew Point 70 °F
Humidity 91%
Rainfall in
Snow Depth Not available.
UV 0 out of 12
Pollen Not available.
Air Quality Not available.
Flu Activity Not available.
METAR ROAH 181400Z 15011KT 9999 SCT015 BKN150 23/19 Q1014

More Conditions Fewer Conditions

10-Day Weather Forecast

Almanac

Astronomy

Apr. 18, 2015 Rise Set
Actual Time
Civil Twilight
Nautical Twilight
Astronomical Twilight
Moon
Length of Visible Light
Length of Day
Tomorrow will be .
, % of the Moon is Illuminated

Today's Extremes

Country Highs Country Lows

Community

WunderPhotos

Upload Photos

1,814,405 photos uploaded!

WunderBlogs® & News

Nearby

Air Quality

  Air Quality AQ Index Pollutant
Not available.

Snow Depth

Station Depth Elevation

Earthquake Activity

City Distance Mag. Time & Date
Minimum magnitude displayed is 2.5.

Coastal Water Temperatures

Place Temperature

Stations

Nearby Weather Stations

Station Location Temp. Windchill Dew Point Humidity Wind Precip. Elev Updated Type